sensor_id;sensor_type;location;lat;lon;timestamp;P1;durP1;ratioP1;P2;durP2;ratioP2
2674;SDS011;1347;42.122;24.746;2022-11-04T00:01:24;21.80;;;17.77;;
2674;SDS011;1347;42.122;24.746;2022-11-04T00:03:51;19.97;;;16.70;;
2674;SDS011;1347;42.122;24.746;2022-11-04T00:06:20;19.80;;;16.57;;
2674;SDS011;1347;42.122;24.746;2022-11-04T00:08:47;20.53;;;17.27;;
2674;SDS011;1347;42.122;24.746;2022-11-04T00:11:15;20.67;;;17.30;;
2674;SDS011;1347;42.122;24.746;2022-11-04T00:14:00;23.00;;;16.60;;
2674;SDS011;1347;42.122;24.746;2022-11-04T00:16:27;26.93;;;17.50;;
2674;SDS011;1347;42.122;24.746;2022-11-04T00:19:12;18.83;;;16.83;;
2674;SDS011;1347;42.122;24.746;2022-11-04T00:21:40;27.60;;;19.10;;
2674;SDS011;1347;42.122;24.746;2022-11-04T00:24:24;31.83;;;18.20;;
2674;SDS011;1347;42.122;24.746;2022-11-04T00:27:09;24.90;;;18.07;;
2674;SDS011;1347;42.122;24.746;2022-11-04T00:29:54;26.40;;;18.37;;
2674;SDS011;1347;42.122;24.746;2022-11-04T00:32:21;23.97;;;17.53;;
2674;SDS011;1347;42.122;24.746;2022-11-04T00:35:05;22.03;;;17.97;;
2674;SDS011;1347;42.122;24.746;2022-11-04T00:37:36;23.27;;;18.47;;
2674;SDS011;1347;42.122;24.746;2022-11-04T00:40:04;21.37;;;17.50;;
2674;SDS011;1347;42.122;24.746;2022-11-04T00:42:32;28.07;;;18.30;;
2674;SDS011;1347;42.122;24.746;2022-11-04T00:44:59;21.17;;;18.93;;
2674;SDS011;1347;42.122;24.746;2022-11-04T00:47:26;22.07;;;18.93;;
2674;SDS011;1347;42.122;24.746;2022-11-04T00:49:53;24.90;;;18.03;;
2674;SDS011;1347;42.122;24.746;2022-11-04T00:52:20;23.13;;;19.10;;
2674;SDS011;1347;42.122;24.746;2022-11-04T00:54:49;21.63;;;16.13;;
2674;SDS011;1347;42.122;24.746;2022-11-04T00:57:15;22.87;;;18.37;;
2674;SDS011;1347;42.122;24.746;2022-11-04T00:59:42;24.20;;;18.43;;
2674;SDS011;1347;42.122;24.746;2022-11-04T01:02:10;25.70;;;18.43;;
2674;SDS011;1347;42.122;24.746;2022-11-04T01:04:37;23.73;;;17.90;;
2674;SDS011;1347;42.122;24.746;2022-11-04T01:07:04;25.40;;;18.53;;
2674;SDS011;1347;42.122;24.746;2022-11-04T01:09:31;23.20;;;17.93;;
2674;SDS011;1347;42.122;24.746;2022-11-04T01:11:59;25.17;;;19.97;;
2674;SDS011;1347;42.122;24.746;2022-11-04T01:14:26;24.70;;;19.07;;
2674;SDS011;1347;42.122;24.746;2022-11-04T01:16:53;24.20;;;17.10;;
2674;SDS011;1347;42.122;24.746;2022-11-04T01:19:20;28.13;;;19.40;;
2674;SDS011;1347;42.122;24.746;2022-11-04T01:21:49;25.37;;;16.67;;
2674;SDS011;1347;42.122;24.746;2022-11-04T01:24:16;22.80;;;17.70;;
2674;SDS011;1347;42.122;24.746;2022-11-04T01:26:43;22.80;;;18.00;;
2674;SDS011;1347;42.122;24.746;2022-11-04T01:29:11;22.07;;;17.30;;
2674;SDS011;1347;42.122;24.746;2022-11-04T01:31:39;22.20;;;17.53;;
2674;SDS011;1347;42.122;24.746;2022-11-04T01:34:06;25.10;;;17.73;;
2674;SDS011;1347;42.122;24.746;2022-11-04T01:36:32;25.53;;;16.90;;
2674;SDS011;1347;42.122;24.746;2022-11-04T01:38:59;22.73;;;17.60;;
2674;SDS011;1347;42.122;24.746;2022-11-04T01:41:28;21.13;;;17.00;;
2674;SDS011;1347;42.122;24.746;2022-11-04T01:43:57;19.57;;;16.37;;
2674;SDS011;1347;42.122;24.746;2022-11-04T01:46:28;26.83;;;17.60;;
2674;SDS011;1347;42.122;24.746;2022-11-04T01:49:02;24.17;;;16.17;;
2674;SDS011;1347;42.122;24.746;2022-11-04T01:51:35;27.77;;;17.63;;
2674;SDS011;1347;42.122;24.746;2022-11-04T01:54:05;22.27;;;17.20;;
2674;SDS011;1347;42.122;24.746;2022-11-04T01:56:33;28.50;;;17.63;;
2674;SDS011;1347;42.122;24.746;2022-11-04T01:59:02;26.17;;;19.10;;
2674;SDS011;1347;42.122;24.746;2022-11-04T02:01:37;29.37;;;20.37;;
2674;SDS011;1347;42.122;24.746;2022-11-04T02:04:04;27.23;;;20.37;;
2674;SDS011;1347;42.122;24.746;2022-11-04T02:06:49;28.30;;;20.70;;
2674;SDS011;1347;42.122;24.746;2022-11-04T02:09:18;36.43;;;19.73;;
2674;SDS011;1347;42.122;24.746;2022-11-04T02:11:45;24.60;;;20.60;;
2674;SDS011;1347;42.122;24.746;2022-11-04T02:14:29;27.70;;;19.80;;
2674;SDS011;1347;42.122;24.746;2022-11-04T02:17:00;29.93;;;20.90;;
2674;SDS011;1347;42.122;24.746;2022-11-04T02:19:42;32.00;;;22.03;;
2674;SDS011;1347;42.122;24.746;2022-11-04T02:22:29;31.63;;;22.30;;
2674;SDS011;1347;42.122;24.746;2022-11-04T02:25:19;34.30;;;22.40;;
2674;SDS011;1347;42.122;24.746;2022-11-04T02:30:54;30.33;;;20.70;;
2674;SDS011;1347;42.122;24.746;2022-11-04T02:33:28;30.17;;;21.23;;
2674;SDS011;1347;42.122;24.746;2022-11-04T02:36:05;27.03;;;21.13;;
2674;SDS011;1347;42.122;24.746;2022-11-04T02:38:41;28.10;;;21.57;;
2674;SDS011;1347;42.122;24.746;2022-11-04T02:41:16;29.97;;;23.07;;
2674;SDS011;1347;42.122;24.746;2022-11-04T02:43:57;28.40;;;22.00;;
2674;SDS011;1347;42.122;24.746;2022-11-04T02:46:33;30.27;;;23.40;;
2674;SDS011;1347;42.122;24.746;2022-11-04T02:49:05;31.03;;;23.33;;
2674;SDS011;1347;42.122;24.746;2022-11-04T02:51:36;38.93;;;23.30;;
2674;SDS011;1347;42.122;24.746;2022-11-04T02:54:09;36.87;;;23.00;;
2674;SDS011;1347;42.122;24.746;2022-11-04T02:56:40;28.93;;;22.63;;
2674;SDS011;1347;42.122;24.746;2022-11-04T02:59:12;33.30;;;23.70;;
2674;SDS011;1347;42.122;24.746;2022-11-04T03:01:44;31.33;;;23.67;;
2674;SDS011;1347;42.122;24.746;2022-11-04T03:04:14;31.57;;;25.10;;
2674;SDS011;1347;42.122;24.746;2022-11-04T03:06:47;37.47;;;24.57;;
2674;SDS011;1347;42.122;24.746;2022-11-04T03:09:16;31.40;;;23.77;;
2674;SDS011;1347;42.122;24.746;2022-11-04T03:11:56;32.73;;;25.20;;
2674;SDS011;1347;42.122;24.746;2022-11-04T03:14:28;30.77;;;24.90;;
2674;SDS011;1347;42.122;24.746;2022-11-04T03:17:03;34.67;;;25.90;;
2674;SDS011;1347;42.122;24.746;2022-11-04T03:19:37;35.33;;;26.80;;
2674;SDS011;1347;42.122;24.746;2022-11-04T03:22:10;35.13;;;27.07;;
2674;SDS011;1347;42.122;24.746;2022-11-04T03:24:39;36.00;;;27.20;;
2674;SDS011;1347;42.122;24.746;2022-11-04T03:27:08;38.07;;;27.77;;
2674;SDS011;1347;42.122;24.746;2022-11-04T03:29:44;34.17;;;26.77;;
2674;SDS011;1347;42.122;24.746;2022-11-04T03:32:19;34.70;;;27.80;;
2674;SDS011;1347;42.122;24.746;2022-11-04T03:34:53;37.70;;;27.87;;
2674;SDS011;1347;42.122;24.746;2022-11-04T03:37:20;40.33;;;27.20;;
2674;SDS011;1347;42.122;24.746;2022-11-04T03:39:47;36.43;;;28.27;;
2674;SDS011;1347;42.122;24.746;2022-11-04T03:42:14;35.20;;;27.63;;
2674;SDS011;1347;42.122;24.746;2022-11-04T03:44:47;38.33;;;28.90;;
2674;SDS011;1347;42.122;24.746;2022-11-04T03:47:14;41.70;;;30.70;;
2674;SDS011;1347;42.122;24.746;2022-11-04T03:49:44;38.37;;;28.80;;
2674;SDS011;1347;42.122;24.746;2022-11-04T03:52:12;36.50;;;30.10;;
2674;SDS011;1347;42.122;24.746;2022-11-04T03:54:40;36.60;;;29.67;;
2674;SDS011;1347;42.122;24.746;2022-11-04T03:57:12;42.60;;;28.70;;
2674;SDS011;1347;42.122;24.746;2022-11-04T03:59:58;39.50;;;29.63;;
2674;SDS011;1347;42.122;24.746;2022-11-04T04:02:33;35.57;;;29.97;;
2674;SDS011;1347;42.122;24.746;2022-11-04T04:05:10;42.73;;;31.27;;
2674;SDS011;1347;42.122;24.746;2022-11-04T04:07:43;44.33;;;33.07;;
2674;SDS011;1347;42.122;24.746;2022-11-04T04:10:14;36.47;;;30.03;;
2674;SDS011;1347;42.122;24.746;2022-11-04T04:13:03;35.50;;;28.63;;
2674;SDS011;1347;42.122;24.746;2022-11-04T04:15:37;43.43;;;29.90;;
2674;SDS011;1347;42.122;24.746;2022-11-04T04:18:11;39.67;;;30.27;;
2674;SDS011;1347;42.122;24.746;2022-11-04T04:20:41;34.77;;;30.07;;
2674;SDS011;1347;42.122;24.746;2022-11-04T04:23:13;38.13;;;30.17;;
2674;SDS011;1347;42.122;24.746;2022-11-04T04:26:02;38.33;;;30.37;;
2674;SDS011;1347;42.122;24.746;2022-11-04T04:28:50;36.03;;;28.37;;
2674;SDS011;1347;42.122;24.746;2022-11-04T04:31:19;37.10;;;31.23;;
2674;SDS011;1347;42.122;24.746;2022-11-04T04:34:05;38.67;;;30.37;;
2674;SDS011;1347;42.122;24.746;2022-11-04T04:36:35;42.70;;;30.50;;
2674;SDS011;1347;42.122;24.746;2022-11-04T04:39:07;37.17;;;30.07;;
2674;SDS011;1347;42.122;24.746;2022-11-04T04:41:54;35.37;;;28.40;;
2674;SDS011;1347;42.122;24.746;2022-11-04T04:44:40;41.83;;;30.20;;
2674;SDS011;1347;42.122;24.746;2022-11-04T04:47:27;47.33;;;30.90;;
2674;SDS011;1347;42.122;24.746;2022-11-04T04:49:59;34.83;;;29.70;;
2674;SDS011;1347;42.122;24.746;2022-11-04T04:52:29;45.40;;;33.87;;
2674;SDS011;1347;42.122;24.746;2022-11-04T04:54:57;40.83;;;30.97;;
2674;SDS011;1347;42.122;24.746;2022-11-04T04:57:24;39.50;;;28.97;;
2674;SDS011;1347;42.122;24.746;2022-11-04T04:59:51;36.17;;;27.67;;
2674;SDS011;1347;42.122;24.746;2022-11-04T05:02:18;41.70;;;28.30;;
2674;SDS011;1347;42.122;24.746;2022-11-04T05:04:45;39.33;;;28.23;;
2674;SDS011;1347;42.122;24.746;2022-11-04T05:07:12;43.83;;;28.17;;
2674;SDS011;1347;42.122;24.746;2022-11-04T05:09:40;34.40;;;27.37;;
2674;SDS011;1347;42.122;24.746;2022-11-04T05:12:07;37.80;;;26.77;;
2674;SDS011;1347;42.122;24.746;2022-11-04T05:14:35;33.63;;;27.50;;
2674;SDS011;1347;42.122;24.746;2022-11-04T05:17:02;32.00;;;26.10;;
2674;SDS011;1347;42.122;24.746;2022-11-04T05:19:29;32.33;;;26.77;;
2674;SDS011;1347;42.122;24.746;2022-11-04T05:21:56;34.40;;;27.23;;
2674;SDS011;1347;42.122;24.746;2022-11-04T05:24:23;38.47;;;26.67;;
2674;SDS011;1347;42.122;24.746;2022-11-04T05:26:51;36.37;;;26.57;;
2674;SDS011;1347;42.122;24.746;2022-11-04T05:29:18;30.30;;;26.77;;
2674;SDS011;1347;42.122;24.746;2022-11-04T05:31:45;36.73;;;27.20;;
2674;SDS011;1347;42.122;24.746;2022-11-04T05:34:12;41.13;;;27.20;;
2674;SDS011;1347;42.122;24.746;2022-11-04T05:36:39;39.70;;;28.23;;
2674;SDS011;1347;42.122;24.746;2022-11-04T05:39:06;36.87;;;29.17;;
2674;SDS011;1347;42.122;24.746;2022-11-04T05:41:33;39.13;;;29.07;;
2674;SDS011;1347;42.122;24.746;2022-11-04T05:44:02;37.33;;;29.57;;
2674;SDS011;1347;42.122;24.746;2022-11-04T05:46:30;44.50;;;30.97;;
2674;SDS011;1347;42.122;24.746;2022-11-04T05:48:57;38.30;;;30.20;;
2674;SDS011;1347;42.122;24.746;2022-11-04T05:51:25;36.80;;;29.93;;
2674;SDS011;1347;42.122;24.746;2022-11-04T05:53:53;34.30;;;29.70;;
2674;SDS011;1347;42.122;24.746;2022-11-04T05:56:20;38.97;;;30.77;;
2674;SDS011;1347;42.122;24.746;2022-11-04T05:58:47;42.00;;;28.00;;
2674;SDS011;1347;42.122;24.746;2022-11-04T06:01:23;38.03;;;26.37;;
2674;SDS011;1347;42.122;24.746;2022-11-04T06:03:56;42.77;;;28.67;;
2674;SDS011;1347;42.122;24.746;2022-11-04T06:06:24;36.60;;;26.70;;
2674;SDS011;1347;42.122;24.746;2022-11-04T06:08:53;39.33;;;27.60;;
2674;SDS011;1347;42.122;24.746;2022-11-04T06:11:20;34.70;;;26.70;;
2674;SDS011;1347;42.122;24.746;2022-11-04T06:13:48;37.70;;;26.87;;
2674;SDS011;1347;42.122;24.746;2022-11-04T06:16:15;32.93;;;26.40;;
2674;SDS011;1347;42.122;24.746;2022-11-04T06:18:44;39.90;;;27.07;;
2674;SDS011;1347;42.122;24.746;2022-11-04T06:21:21;35.27;;;27.20;;
2674;SDS011;1347;42.122;24.746;2022-11-04T06:23:50;33.60;;;28.80;;
2674;SDS011;1347;42.122;24.746;2022-11-04T06:26:18;33.43;;;26.40;;
2674;SDS011;1347;42.122;24.746;2022-11-04T06:28:46;34.00;;;24.97;;
2674;SDS011;1347;42.122;24.746;2022-11-04T06:31:13;36.40;;;25.97;;
2674;SDS011;1347;42.122;24.746;2022-11-04T06:33:41;31.23;;;26.83;;
2674;SDS011;1347;42.122;24.746;2022-11-04T06:36:11;39.20;;;27.07;;
2674;SDS011;1347;42.122;24.746;2022-11-04T06:38:39;35.07;;;26.20;;
2674;SDS011;1347;42.122;24.746;2022-11-04T06:41:06;35.70;;;26.60;;
2674;SDS011;1347;42.122;24.746;2022-11-04T06:43:36;35.43;;;26.63;;
2674;SDS011;1347;42.122;24.746;2022-11-04T06:46:03;38.70;;;27.83;;
2674;SDS011;1347;42.122;24.746;2022-11-04T06:48:30;36.43;;;28.30;;
2674;SDS011;1347;42.122;24.746;2022-11-04T06:50:57;36.53;;;28.60;;
2674;SDS011;1347;42.122;24.746;2022-11-04T06:53:26;34.50;;;26.73;;
2674;SDS011;1347;42.122;24.746;2022-11-04T06:55:59;33.23;;;26.20;;
2674;SDS011;1347;42.122;24.746;2022-11-04T06:58:28;34.87;;;26.57;;
2674;SDS011;1347;42.122;24.746;2022-11-04T07:00:55;41.40;;;30.70;;
2674;SDS011;1347;42.122;24.746;2022-11-04T07:03:22;45.00;;;26.77;;
2674;SDS011;1347;42.122;24.746;2022-11-04T07:05:48;47.20;;;26.50;;
2674;SDS011;1347;42.122;24.746;2022-11-04T07:08:15;53.47;;;30.93;;
2674;SDS011;1347;42.122;24.746;2022-11-04T07:10:44;44.30;;;27.37;;
2674;SDS011;1347;42.122;24.746;2022-11-04T07:13:11;36.00;;;25.90;;
2674;SDS011;1347;42.122;24.746;2022-11-04T07:15:38;42.90;;;26.90;;
2674;SDS011;1347;42.122;24.746;2022-11-04T07:18:05;39.33;;;25.03;;
2674;SDS011;1347;42.122;24.746;2022-11-04T07:20:32;44.17;;;28.20;;
2674;SDS011;1347;42.122;24.746;2022-11-04T07:22:59;36.73;;;26.03;;
2674;SDS011;1347;42.122;24.746;2022-11-04T07:25:25;43.70;;;27.23;;
2674;SDS011;1347;42.122;24.746;2022-11-04T07:27:54;38.23;;;27.30;;
2674;SDS011;1347;42.122;24.746;2022-11-04T07:30:21;41.03;;;29.40;;
2674;SDS011;1347;42.122;24.746;2022-11-04T07:32:48;43.37;;;28.70;;
2674;SDS011;1347;42.122;24.746;2022-11-04T07:35:15;37.73;;;26.30;;
2674;SDS011;1347;42.122;24.746;2022-11-04T07:37:42;37.50;;;27.30;;
2674;SDS011;1347;42.122;24.746;2022-11-04T07:40:09;37.90;;;28.57;;
2674;SDS011;1347;42.122;24.746;2022-11-04T07:42:36;38.50;;;28.17;;
2674;SDS011;1347;42.122;24.746;2022-11-04T07:45:05;42.00;;;27.73;;
2674;SDS011;1347;42.122;24.746;2022-11-04T07:47:33;41.13;;;26.20;;
2674;SDS011;1347;42.122;24.746;2022-11-04T07:50:00;51.60;;;30.00;;
2674;SDS011;1347;42.122;24.746;2022-11-04T07:52:27;42.57;;;28.53;;
2674;SDS011;1347;42.122;24.746;2022-11-04T07:54:54;50.00;;;31.00;;
2674;SDS011;1347;42.122;24.746;2022-11-04T07:57:21;43.00;;;29.40;;
2674;SDS011;1347;42.122;24.746;2022-11-04T07:59:48;42.27;;;29.50;;
2674;SDS011;1347;42.122;24.746;2022-11-04T08:02:16;52.80;;;29.83;;
2674;SDS011;1347;42.122;24.746;2022-11-04T08:04:43;45.93;;;29.97;;
2674;SDS011;1347;42.122;24.746;2022-11-04T08:07:10;45.27;;;31.43;;
2674;SDS011;1347;42.122;24.746;2022-11-04T08:09:37;53.67;;;31.33;;
2674;SDS011;1347;42.122;24.746;2022-11-04T08:12:04;48.50;;;31.80;;
2674;SDS011;1347;42.122;24.746;2022-11-04T08:14:31;45.93;;;31.43;;
2674;SDS011;1347;42.122;24.746;2022-11-04T08:16:58;48.60;;;31.17;;
2674;SDS011;1347;42.122;24.746;2022-11-04T08:19:26;44.00;;;31.70;;
2674;SDS011;1347;42.122;24.746;2022-11-04T08:21:53;48.20;;;34.57;;
2674;SDS011;1347;42.122;24.746;2022-11-04T08:24:20;49.80;;;33.53;;
2674;SDS011;1347;42.122;24.746;2022-11-04T08:26:47;54.70;;;36.90;;
2674;SDS011;1347;42.122;24.746;2022-11-04T08:29:14;47.40;;;32.67;;
2674;SDS011;1347;42.122;24.746;2022-11-04T08:31:41;42.23;;;31.93;;
2674;SDS011;1347;42.122;24.746;2022-11-04T08:34:08;42.20;;;31.77;;
2674;SDS011;1347;42.122;24.746;2022-11-04T08:36:37;45.70;;;28.50;;
2674;SDS011;1347;42.122;24.746;2022-11-04T08:39:07;41.43;;;26.77;;
2674;SDS011;1347;42.122;24.746;2022-11-04T08:41:34;36.70;;;29.23;;
2674;SDS011;1347;42.122;24.746;2022-11-04T08:44:03;41.80;;;28.37;;
2674;SDS011;1347;42.122;24.746;2022-11-04T08:46:31;42.57;;;29.30;;
2674;SDS011;1347;42.122;24.746;2022-11-04T08:49:00;44.37;;;28.80;;
2674;SDS011;1347;42.122;24.746;2022-11-04T08:51:28;42.77;;;32.13;;
2674;SDS011;1347;42.122;24.746;2022-11-04T08:53:58;44.03;;;28.27;;
2674;SDS011;1347;42.122;24.746;2022-11-04T08:56:26;36.73;;;26.77;;
2674;SDS011;1347;42.122;24.746;2022-11-04T08:58:54;36.93;;;28.53;;
2674;SDS011;1347;42.122;24.746;2022-11-04T09:01:22;38.90;;;26.97;;
2674;SDS011;1347;42.122;24.746;2022-11-04T09:03:49;40.53;;;25.50;;
2674;SDS011;1347;42.122;24.746;2022-11-04T09:06:17;38.80;;;28.70;;
2674;SDS011;1347;42.122;24.746;2022-11-04T09:08:46;33.47;;;26.60;;
2674;SDS011;1347;42.122;24.746;2022-11-04T09:11:15;30.87;;;25.90;;
2674;SDS011;1347;42.122;24.746;2022-11-04T09:13:43;48.10;;;34.67;;
2674;SDS011;1347;42.122;24.746;2022-11-04T09:16:10;38.93;;;29.00;;
2674;SDS011;1347;42.122;24.746;2022-11-04T09:18:39;32.93;;;26.33;;
2674;SDS011;1347;42.122;24.746;2022-11-04T09:21:07;42.40;;;28.17;;
2674;SDS011;1347;42.122;24.746;2022-11-04T09:23:35;38.77;;;28.20;;
2674;SDS011;1347;42.122;24.746;2022-11-04T09:26:03;32.80;;;27.70;;
2674;SDS011;1347;42.122;24.746;2022-11-04T09:28:32;33.57;;;28.10;;
2674;SDS011;1347;42.122;24.746;2022-11-04T09:31:03;33.87;;;27.80;;
2674;SDS011;1347;42.122;24.746;2022-11-04T09:33:30;37.67;;;28.07;;
2674;SDS011;1347;42.122;24.746;2022-11-04T09:35:57;42.63;;;27.17;;
2674;SDS011;1347;42.122;24.746;2022-11-04T09:38:24;35.73;;;27.93;;
2674;SDS011;1347;42.122;24.746;2022-11-04T09:40:51;39.60;;;30.27;;
2674;SDS011;1347;42.122;24.746;2022-11-04T09:43:28;37.93;;;28.60;;
2674;SDS011;1347;42.122;24.746;2022-11-04T09:46:07;40.00;;;32.00;;
2674;SDS011;1347;42.122;24.746;2022-11-04T09:48:38;34.73;;;28.83;;
2674;SDS011;1347;42.122;24.746;2022-11-04T09:51:09;40.47;;;28.17;;
2674;SDS011;1347;42.122;24.746;2022-11-04T09:53:37;29.53;;;26.10;;
2674;SDS011;1347;42.122;24.746;2022-11-04T09:56:12;33.80;;;27.40;;
2674;SDS011;1347;42.122;24.746;2022-11-04T09:58:43;35.17;;;26.90;;
2674;SDS011;1347;42.122;24.746;2022-11-04T10:01:13;38.73;;;28.67;;
2674;SDS011;1347;42.122;24.746;2022-11-04T10:04:00;30.93;;;26.50;;
2674;SDS011;1347;42.122;24.746;2022-11-04T10:06:39;40.40;;;27.60;;
2674;SDS011;1347;42.122;24.746;2022-11-04T10:09:36;34.50;;;24.97;;
2674;SDS011;1347;42.122;24.746;2022-11-04T10:12:16;29.40;;;25.53;;
2674;SDS011;1347;42.122;24.746;2022-11-04T10:15:17;34.27;;;25.57;;
2674;SDS011;1347;42.122;24.746;2022-11-04T10:18:03;31.90;;;26.43;;
2674;SDS011;1347;42.122;24.746;2022-11-04T10:20:44;35.00;;;24.97;;
2674;SDS011;1347;42.122;24.746;2022-11-04T10:23:19;37.67;;;29.17;;
2674;SDS011;1347;42.122;24.746;2022-11-04T10:25:48;34.73;;;28.60;;
2674;SDS011;1347;42.122;24.746;2022-11-04T10:28:24;31.20;;;24.87;;
2674;SDS011;1347;42.122;24.746;2022-11-04T10:30:57;33.57;;;27.80;;
2674;SDS011;1347;42.122;24.746;2022-11-04T10:33:27;34.87;;;26.10;;
2674;SDS011;1347;42.122;24.746;2022-11-04T10:35:58;43.30;;;26.97;;
2674;SDS011;1347;42.122;24.746;2022-11-04T10:38:31;41.30;;;27.30;;
2674;SDS011;1347;42.122;24.746;2022-11-04T10:41:02;33.97;;;26.17;;
2674;SDS011;1347;42.122;24.746;2022-11-04T10:43:42;42.40;;;27.40;;
2674;SDS011;1347;42.122;24.746;2022-11-04T10:46:14;34.80;;;27.53;;
2674;SDS011;1347;42.122;24.746;2022-11-04T10:48:53;38.03;;;29.13;;
2674;SDS011;1347;42.122;24.746;2022-11-04T10:51:26;31.80;;;24.20;;
2674;SDS011;1347;42.122;24.746;2022-11-04T10:53:53;34.47;;;27.80;;
2674;SDS011;1347;42.122;24.746;2022-11-04T10:56:24;32.40;;;27.07;;
2674;SDS011;1347;42.122;24.746;2022-11-04T10:59:04;30.37;;;25.57;;
2674;SDS011;1347;42.122;24.746;2022-11-04T11:01:47;32.80;;;24.70;;
2674;SDS011;1347;42.122;24.746;2022-11-04T11:04:23;33.27;;;25.80;;
2674;SDS011;1347;42.122;24.746;2022-11-04T11:06:52;33.40;;;27.07;;
2674;SDS011;1347;42.122;24.746;2022-11-04T11:09:21;39.00;;;28.30;;
2674;SDS011;1347;42.122;24.746;2022-11-04T11:11:54;36.03;;;25.70;;
2674;SDS011;1347;42.122;24.746;2022-11-04T11:14:31;36.90;;;26.60;;
2674;SDS011;1347;42.122;24.746;2022-11-04T11:17:17;33.93;;;26.83;;
2674;SDS011;1347;42.122;24.746;2022-11-04T11:19:47;33.17;;;25.63;;
2674;SDS011;1347;42.122;24.746;2022-11-04T11:22:34;32.07;;;26.13;;
2674;SDS011;1347;42.122;24.746;2022-11-04T11:25:11;35.40;;;23.87;;
2674;SDS011;1347;42.122;24.746;2022-11-04T11:27:44;32.50;;;24.23;;
2674;SDS011;1347;42.122;24.746;2022-11-04T11:30:21;34.73;;;26.10;;
2674;SDS011;1347;42.122;24.746;2022-11-04T11:32:56;55.23;;;26.63;;
2674;SDS011;1347;42.122;24.746;2022-11-04T11:35:26;38.37;;;25.57;;
2674;SDS011;1347;42.122;24.746;2022-11-04T11:37:57;31.30;;;26.07;;
2674;SDS011;1347;42.122;24.746;2022-11-04T11:40:29;33.00;;;26.67;;
2674;SDS011;1347;42.122;24.746;2022-11-04T11:42:58;32.00;;;26.17;;
2674;SDS011;1347;42.122;24.746;2022-11-04T11:45:27;37.30;;;25.50;;
2674;SDS011;1347;42.122;24.746;2022-11-04T11:47:56;31.00;;;23.40;;
2674;SDS011;1347;42.122;24.746;2022-11-04T11:50:24;31.43;;;26.13;;
2674;SDS011;1347;42.122;24.746;2022-11-04T11:53:06;29.30;;;26.17;;
2674;SDS011;1347;42.122;24.746;2022-11-04T11:55:41;30.67;;;25.87;;
2674;SDS011;1347;42.122;24.746;2022-11-04T11:58:16;33.77;;;27.70;;
2674;SDS011;1347;42.122;24.746;2022-11-04T12:00:49;30.93;;;25.50;;
2674;SDS011;1347;42.122;24.746;2022-11-04T12:03:22;34.00;;;25.80;;
2674;SDS011;1347;42.122;24.746;2022-11-04T12:05:59;34.70;;;26.50;;
2674;SDS011;1347;42.122;24.746;2022-11-04T12:08:45;33.73;;;25.73;;
2674;SDS011;1347;42.122;24.746;2022-11-04T12:11:27;34.00;;;24.73;;
2674;SDS011;1347;42.122;24.746;2022-11-04T12:14:02;34.83;;;26.97;;
2674;SDS011;1347;42.122;24.746;2022-11-04T12:16:36;35.50;;;26.10;;
2674;SDS011;1347;42.122;24.746;2022-11-04T12:19:22;37.13;;;26.07;;
2674;SDS011;1347;42.122;24.746;2022-11-04T12:22:02;30.07;;;25.33;;
2674;SDS011;1347;42.122;24.746;2022-11-04T12:24:37;31.10;;;25.70;;
2674;SDS011;1347;42.122;24.746;2022-11-04T12:27:16;31.37;;;24.23;;
2674;SDS011;1347;42.122;24.746;2022-11-04T12:29:59;31.03;;;24.50;;
2674;SDS011;1347;42.122;24.746;2022-11-04T12:32:33;32.50;;;24.70;;
2674;SDS011;1347;42.122;24.746;2022-11-04T12:35:20;36.57;;;23.87;;
2674;SDS011;1347;42.122;24.746;2022-11-04T12:38:01;35.10;;;23.90;;
2674;SDS011;1347;42.122;24.746;2022-11-04T12:40:43;35.20;;;25.90;;
2674;SDS011;1347;42.122;24.746;2022-11-04T12:43:19;31.83;;;24.40;;
2674;SDS011;1347;42.122;24.746;2022-11-04T12:45:54;29.30;;;25.10;;
2674;SDS011;1347;42.122;24.746;2022-11-04T12:48:42;34.17;;;26.00;;
2674;SDS011;1347;42.122;24.746;2022-11-04T12:51:23;34.10;;;24.30;;
2674;SDS011;1347;42.122;24.746;2022-11-04T12:54:07;33.13;;;26.43;;
2674;SDS011;1347;42.122;24.746;2022-11-04T12:56:47;38.80;;;26.37;;
2674;SDS011;1347;42.122;24.746;2022-11-04T12:59:43;27.90;;;24.50;;
2674;SDS011;1347;42.122;24.746;2022-11-04T13:02:27;42.40;;;25.70;;
2674;SDS011;1347;42.122;24.746;2022-11-04T13:04:59;32.70;;;26.00;;
2674;SDS011;1347;42.122;24.746;2022-11-04T13:07:37;29.80;;;26.60;;
2674;SDS011;1347;42.122;24.746;2022-11-04T13:10:13;37.60;;;25.57;;
2674;SDS011;1347;42.122;24.746;2022-11-04T13:12:45;37.60;;;26.50;;
2674;SDS011;1347;42.122;24.746;2022-11-04T13:15:15;28.47;;;25.03;;
2674;SDS011;1347;42.122;24.746;2022-11-04T13:17:45;35.70;;;25.03;;
2674;SDS011;1347;42.122;24.746;2022-11-04T13:20:16;31.93;;;25.13;;
2674;SDS011;1347;42.122;24.746;2022-11-04T13:22:53;33.97;;;26.10;;
2674;SDS011;1347;42.122;24.746;2022-11-04T13:25:27;32.50;;;25.50;;
2674;SDS011;1347;42.122;24.746;2022-11-04T13:27:56;31.83;;;25.30;;
2674;SDS011;1347;42.122;24.746;2022-11-04T13:30:26;30.60;;;24.77;;
2674;SDS011;1347;42.122;24.746;2022-11-04T13:33:01;39.20;;;26.80;;
2674;SDS011;1347;42.122;24.746;2022-11-04T13:35:39;38.13;;;24.13;;
2674;SDS011;1347;42.122;24.746;2022-11-04T13:38:17;33.97;;;26.13;;
2674;SDS011;1347;42.122;24.746;2022-11-04T13:40:50;43.40;;;30.87;;
2674;SDS011;1347;42.122;24.746;2022-11-04T13:43:29;37.00;;;30.60;;
2674;SDS011;1347;42.122;24.746;2022-11-04T13:46:05;37.63;;;28.47;;
2674;SDS011;1347;42.122;24.746;2022-11-04T13:48:52;38.37;;;27.70;;
2674;SDS011;1347;42.122;24.746;2022-11-04T13:51:32;29.40;;;25.13;;
2674;SDS011;1347;42.122;24.746;2022-11-04T13:54:06;33.87;;;26.90;;
2674;SDS011;1347;42.122;24.746;2022-11-04T13:56:49;46.63;;;26.87;;
2674;SDS011;1347;42.122;24.746;2022-11-04T13:59:18;31.57;;;25.67;;
2674;SDS011;1347;42.122;24.746;2022-11-04T14:01:48;35.17;;;26.40;;
2674;SDS011;1347;42.122;24.746;2022-11-04T14:04:35;33.00;;;26.00;;
2674;SDS011;1347;42.122;24.746;2022-11-04T14:07:03;35.07;;;27.40;;
2674;SDS011;1347;42.122;24.746;2022-11-04T14:09:48;32.10;;;27.80;;
2674;SDS011;1347;42.122;24.746;2022-11-04T14:12:22;33.40;;;28.87;;
2674;SDS011;1347;42.122;24.746;2022-11-04T14:15:04;41.43;;;27.90;;
2674;SDS011;1347;42.122;24.746;2022-11-04T14:20:25;35.77;;;29.17;;
2674;SDS011;1347;42.122;24.746;2022-11-04T14:22:55;35.43;;;27.13;;
2674;SDS011;1347;42.122;24.746;2022-11-04T14:28:18;37.27;;;26.73;;
2674;SDS011;1347;42.122;24.746;2022-11-04T14:30:53;38.90;;;29.60;;
2674;SDS011;1347;42.122;24.746;2022-11-04T14:33:32;30.47;;;25.97;;
2674;SDS011;1347;42.122;24.746;2022-11-04T14:36:20;32.90;;;27.90;;
2674;SDS011;1347;42.122;24.746;2022-11-04T14:38:56;36.07;;;27.67;;
2674;SDS011;1347;42.122;24.746;2022-11-04T14:41:32;43.10;;;28.50;;
2674;SDS011;1347;42.122;24.746;2022-11-04T14:44:22;34.03;;;25.37;;
2674;SDS011;1347;42.122;24.746;2022-11-04T14:46:55;35.37;;;28.03;;
2674;SDS011;1347;42.122;24.746;2022-11-04T14:49:31;44.77;;;28.23;;
2674;SDS011;1347;42.122;24.746;2022-11-04T14:52:04;33.80;;;25.67;;
2674;SDS011;1347;42.122;24.746;2022-11-04T14:54:32;38.17;;;27.07;;
2674;SDS011;1347;42.122;24.746;2022-11-04T14:57:08;39.77;;;28.67;;
2674;SDS011;1347;42.122;24.746;2022-11-04T14:59:39;36.47;;;28.10;;
2674;SDS011;1347;42.122;24.746;2022-11-04T15:02:10;43.87;;;30.97;;
2674;SDS011;1347;42.122;24.746;2022-11-04T15:04:44;42.63;;;29.27;;
2674;SDS011;1347;42.122;24.746;2022-11-04T15:07:21;37.63;;;27.03;;
2674;SDS011;1347;42.122;24.746;2022-11-04T15:09:51;41.37;;;29.60;;
2674;SDS011;1347;42.122;24.746;2022-11-04T15:12:20;51.43;;;31.27;;